createdAt,value
2019-03-06T00:02:01.215Z,6.36
2019-03-06T00:04:28.972Z,6.36
2019-03-06T00:06:56.778Z,6.43
2019-03-06T00:09:24.350Z,6.43
2019-03-06T00:11:53.252Z,6.45
2019-03-06T00:14:21.132Z,6.47
2019-03-06T00:16:48.999Z,6.48
2019-03-06T00:19:16.576Z,6.48
2019-03-06T00:21:44.035Z,6.48
2019-03-06T00:24:13.909Z,6.48
2019-03-06T00:26:43.224Z,6.50
2019-03-06T00:32:00.439Z,6.54
2019-03-06T00:34:28.306Z,6.57
2019-03-06T00:36:55.891Z,6.60
2019-03-06T00:39:23.636Z,6.60
2019-03-06T00:41:53.299Z,6.63
2019-03-06T00:44:20.851Z,6.64
2019-03-06T00:46:48.516Z,6.64
2019-03-06T00:49:19.092Z,6.69
2019-03-06T00:51:46.956Z,6.73
2019-03-06T00:54:14.475Z,6.73
2019-03-06T00:56:41.929Z,6.83
2019-03-06T00:59:09.505Z,6.89
2019-03-06T01:01:37.753Z,6.89
2019-03-06T01:04:05.307Z,6.94
2019-03-06T01:06:33.448Z,7.02
2019-03-06T01:09:01.054Z,7.02
2019-03-06T01:11:31.472Z,7.04
2019-03-06T01:13:59.055Z,7.09
2019-03-06T01:16:26.620Z,7.09
2019-03-06T01:18:54.339Z,7.10
2019-03-06T01:21:22.208Z,7.10
2019-03-06T01:23:49.798Z,7.12
2019-03-06T01:26:17.308Z,7.13
2019-03-06T01:28:45.217Z,7.14
2019-03-06T01:31:12.930Z,7.14
2019-03-06T01:33:48.619Z,7.14
2019-03-06T01:36:45.299Z,7.15
2019-03-06T01:39:21.250Z,7.15
2019-03-06T01:42:13.495Z,7.15
2019-03-06T01:44:48.026Z,7.17
2019-03-06T01:47:15.625Z,7.17
2019-03-06T01:49:43.192Z,7.17
2019-03-06T01:52:11.059Z,7.18
2019-03-06T01:54:38.620Z,7.19
2019-03-06T01:57:06.213Z,7.20
2019-03-06T01:59:33.723Z,7.21
2019-03-06T02:02:01.606Z,7.21
2019-03-06T02:04:29.173Z,7.21
2019-03-06T02:06:57.029Z,7.22
2019-03-06T02:09:24.634Z,7.22
2019-03-06T02:11:52.574Z,7.22
2019-03-06T02:14:20.444Z,7.21
2019-03-06T02:16:48.079Z,7.21
2019-03-06T02:19:15.609Z,7.20
2019-03-06T02:21:43.481Z,7.21
2019-03-06T02:24:11.050Z,7.21
2019-03-06T02:26:38.526Z,7.23
2019-03-06T02:29:06.335Z,7.23
2019-03-06T02:31:34.034Z,7.25
2019-03-06T02:34:01.579Z,7.25
2019-03-06T02:36:29.088Z,7.33
2019-03-06T02:38:56.934Z,7.33
2019-03-06T02:41:25.197Z,7.39
2019-03-06T02:43:52.726Z,7.42
2019-03-06T02:46:20.553Z,7.44
2019-03-06T02:48:50.088Z,7.48
2019-03-06T02:51:17.292Z,7.48
2019-03-06T02:53:45.096Z,7.55
2019-03-06T02:56:12.642Z,7.55
2019-03-06T02:58:52.277Z,7.57
2019-03-06T03:01:33.116Z,7.57
2019-03-06T03:04:08.743Z,7.57
2019-03-06T03:06:40.276Z,7.57
2019-03-06T03:09:09.911Z,7.57
2019-03-06T03:11:37.332Z,7.54
2019-03-06T03:14:04.931Z,7.54
2019-03-06T03:16:32.492Z,7.53
2019-03-06T03:19:00.368Z,7.54
2019-03-06T03:21:28.260Z,7.54
2019-03-06T03:23:55.828Z,7.54
2019-03-06T03:26:23.613Z,7.55
2019-03-06T03:28:51.423Z,7.55
2019-03-06T03:31:18.935Z,7.60
2019-03-06T03:33:46.748Z,7.60
2019-03-06T03:36:14.382Z,7.69
2019-03-06T03:38:41.897Z,7.69
2019-03-06T03:41:09.735Z,7.77
2019-03-06T03:43:37.812Z,7.81
2019-03-06T03:46:05.406Z,7.84
2019-03-06T03:48:32.913Z,7.87
2019-03-06T03:51:00.913Z,7.89
2019-03-06T03:53:28.746Z,7.88
2019-03-06T03:55:56.251Z,7.88
2019-03-06T03:58:23.849Z,7.88
2019-03-06T04:00:51.681Z,7.84
2019-03-06T04:03:19.129Z,7.83
2019-03-06T04:05:47.123Z,7.83
2019-03-06T04:08:14.680Z,7.81
2019-03-06T04:10:43.543Z,7.80
2019-03-06T04:13:11.059Z,7.76
2019-03-06T04:15:41.063Z,7.76
2019-03-06T04:18:09.050Z,7.71
2019-03-06T04:20:36.916Z,7.66
2019-03-06T04:23:04.481Z,7.58
2019-03-06T04:25:32.353Z,7.58
2019-03-06T04:28:00.167Z,7.50
2019-03-06T04:30:27.784Z,7.50
2019-03-06T04:32:55.303Z,7.48
2019-03-06T04:35:23.249Z,7.43
2019-03-06T04:37:51.026Z,7.45
2019-03-06T04:40:18.726Z,7.46
2019-03-06T04:42:46.326Z,7.46
2019-03-06T04:45:13.858Z,7.48
2019-03-06T04:47:41.719Z,7.49
2019-03-06T04:50:09.280Z,7.52
2019-03-06T04:52:36.829Z,7.60
2019-03-06T04:55:04.418Z,7.60
2019-03-06T04:57:32.013Z,7.70
2019-03-06T04:59:59.584Z,7.70
2019-03-06T05:02:27.323Z,7.74
2019-03-06T05:04:54.841Z,7.77
2019-03-06T05:07:24.751Z,7.81
2019-03-06T05:09:52.610Z,7.84
2019-03-06T05:12:20.121Z,7.84
2019-03-06T05:14:48.015Z,7.85
2019-03-06T05:17:28.472Z,7.84
2019-03-06T05:19:56.003Z,7.85
2019-03-06T05:22:23.583Z,7.85
2019-03-06T05:24:51.397Z,7.85
2019-03-06T05:27:18.957Z,7.84
2019-03-06T05:29:46.569Z,7.84
2019-03-06T05:32:14.618Z,7.87
2019-03-06T05:34:42.158Z,7.83
2019-03-06T05:37:09.976Z,7.81
2019-03-06T05:39:37.485Z,7.81
2019-03-06T05:42:05.330Z,7.79
2019-03-06T05:44:32.875Z,7.79
2019-03-06T05:47:02.159Z,7.79
2019-03-06T05:49:30.012Z,7.82
2019-03-06T05:51:57.562Z,7.83
2019-03-06T05:54:25.119Z,7.83
2019-03-06T05:56:52.955Z,7.81
2019-03-06T05:59:20.462Z,7.82
2019-03-06T06:01:48.068Z,7.79
2019-03-06T06:04:15.933Z,7.77
2019-03-06T06:06:43.448Z,7.77
2019-03-06T06:09:11.044Z,7.72
2019-03-06T06:11:39.101Z,7.73
2019-03-06T06:14:06.674Z,7.72
2019-03-06T06:16:34.260Z,7.72
2019-03-06T06:19:02.119Z,7.73
2019-03-06T06:22:00.462Z,7.72
2019-03-06T06:24:30.065Z,7.69
2019-03-06T06:26:57.578Z,7.69
2019-03-06T06:29:25.190Z,7.68
2019-03-06T06:31:53.044Z,7.74
2019-03-06T06:34:20.735Z,7.80
2019-03-06T06:36:48.330Z,7.80
2019-03-06T06:39:16.112Z,7.90
2019-03-06T06:41:43.673Z,7.90
2019-03-06T06:44:11.616Z,7.99
2019-03-06T06:46:39.652Z,8.04
2019-03-06T06:49:07.191Z,8.07
2019-03-06T06:51:34.775Z,8.07
2019-03-06T06:54:02.626Z,8.15
2019-03-06T06:56:30.492Z,8.20
2019-03-06T06:58:58.062Z,8.23
2019-03-06T07:01:47.621Z,8.27
2019-03-06T07:04:34.096Z,8.27
2019-03-06T07:07:10.670Z,8.31
2019-03-06T07:10:09.041Z,8.32
2019-03-06T07:12:49.631Z,8.36
2019-03-06T07:15:36.080Z,8.41
2019-03-06T07:18:21.178Z,8.44
2019-03-06T07:21:01.059Z,8.52
2019-03-06T07:23:50.472Z,8.57
2019-03-06T07:26:29.438Z,8.57
2019-03-06T07:29:05.149Z,8.61
2019-03-06T07:31:54.645Z,8.65
2019-03-06T07:34:45.343Z,8.76
2019-03-06T07:37:27.955Z,8.84
2019-03-06T07:40:13.651Z,8.92
2019-03-06T07:42:58.247Z,9.00
2019-03-06T07:45:56.888Z,9.09
2019-03-06T07:48:36.321Z,9.17
2019-03-06T07:51:34.973Z,9.17
2019-03-06T07:54:30.539Z,9.32
2019-03-06T07:57:20.366Z,9.32
2019-03-06T07:59:47.913Z,9.44
2019-03-06T08:02:15.795Z,9.49
2019-03-06T08:04:45.402Z,9.49
2019-03-06T08:07:14.288Z,9.63
2019-03-06T08:09:42.069Z,9.71
2019-03-06T08:12:27.171Z,9.78
2019-03-06T08:15:12.310Z,9.86
2019-03-06T08:18:00.705Z,9.92
2019-03-06T08:20:51.792Z,10.04
2019-03-06T08:23:38.183Z,10.04
2019-03-06T08:26:06.270Z,10.38
2019-03-06T08:28:35.345Z,10.38
2019-03-06T08:31:14.916Z,10.54
2019-03-06T08:33:42.756Z,10.65
2019-03-06T08:36:12.216Z,10.75
2019-03-06T08:38:39.696Z,10.84
2019-03-06T08:41:07.551Z,10.90
2019-03-06T08:43:35.342Z,11.09
2019-03-06T08:46:34.223Z,11.18
2019-03-06T08:49:20.696Z,11.29
2019-03-06T08:52:04.443Z,11.43
2019-03-06T08:54:47.346Z,11.43
2019-03-06T08:57:32.512Z,11.68
2019-03-06T09:00:16.282Z,11.68
2019-03-06T09:03:02.029Z,11.79
2019-03-06T09:05:51.258Z,11.82
2019-03-06T09:08:51.838Z,11.88
2019-03-06T09:11:41.202Z,11.88
2019-03-06T09:14:36.961Z,11.99
2019-03-06T09:17:23.353Z,12.06
2019-03-06T09:20:08.346Z,12.12
2019-03-06T09:23:03.910Z,12.34
2019-03-06T09:25:44.424Z,12.34
2019-03-06T09:28:17.452Z,12.54
2019-03-06T09:30:57.913Z,12.54
2019-03-06T09:34:02.258Z,12.63
2019-03-06T09:36:50.678Z,12.73
2019-03-06T09:39:39.911Z,12.73
2019-03-06T09:42:25.258Z,12.79
2019-03-06T09:44:58.929Z,12.84
2019-03-06T09:47:45.746Z,12.92
2019-03-06T09:50:50.159Z,12.92
2019-03-06T09:53:39.766Z,13.04
2019-03-06T09:56:26.242Z,13.14
2019-03-06T09:59:15.755Z,13.25
2019-03-06T10:02:06.863Z,13.25
2019-03-06T10:04:49.119Z,13.33
2019-03-06T10:07:34.143Z,13.33
2019-03-06T10:10:10.500Z,13.32
2019-03-06T10:13:03.495Z,14.01
2019-03-06T10:15:50.335Z,14.10
2019-03-06T10:18:41.180Z,14.10
2019-03-06T10:21:10.400Z,13.89
2019-03-06T10:23:40.723Z,13.92
2019-03-06T10:26:08.318Z,14.26
2019-03-06T10:28:39.514Z,14.26
2019-03-06T10:31:07.259Z,15.38
2019-03-06T10:33:35.995Z,15.38
2019-03-06T10:36:06.807Z,16.49
2019-03-06T10:38:43.222Z,16.49
2019-03-06T10:41:16.361Z,17.05
2019-03-06T10:43:49.092Z,16.46
2019-03-06T10:46:15.112Z,16.46
2019-03-06T10:48:44.345Z,16.16
2019-03-06T10:51:12.411Z,15.56
2019-03-06T10:53:41.436Z,15.60
2019-03-06T10:56:09.921Z,15.60
2019-03-06T10:58:38.746Z,15.69
2019-03-06T11:01:06.392Z,15.59
2019-03-06T11:03:55.627Z,15.72
2019-03-06T11:06:23.286Z,16.11
2019-03-06T11:08:53.979Z,16.90
2019-03-06T11:11:24.609Z,17.48
2019-03-06T11:13:52.207Z,17.59
2019-03-06T11:16:21.812Z,17.73
2019-03-06T11:18:53.188Z,18.20
2019-03-06T11:21:23.593Z,18.74
2019-03-06T11:23:51.213Z,19.20
2019-03-06T11:26:25.126Z,19.20
2019-03-06T11:28:52.700Z,19.47
2019-03-06T11:31:22.151Z,19.59
2019-03-06T11:34:20.267Z,19.27
2019-03-06T11:36:20.956Z,19.27
2019-03-06T11:38:51.068Z,18.59
2019-03-06T11:41:25.241Z,18.59
2019-03-06T11:43:52.957Z,18.50
2019-03-06T11:46:22.530Z,18.47
2019-03-06T11:48:50.194Z,18.49
2019-03-06T11:51:17.781Z,18.68
2019-03-06T11:53:46.989Z,18.69
2019-03-06T11:56:17.947Z,18.62
2019-03-06T11:58:45.597Z,18.58
2019-03-06T12:01:14.570Z,18.58
2019-03-06T12:03:42.497Z,18.47
2019-03-06T12:06:10.043Z,18.47
2019-03-06T12:08:45.520Z,18.52
2019-03-06T12:11:11.345Z,18.70
2019-03-06T12:13:38.967Z,19.03
2019-03-06T12:16:06.683Z,19.57
2019-03-06T12:18:39.389Z,20.59
2019-03-06T12:21:08.607Z,20.59
2019-03-06T12:23:36.179Z,21.54
2019-03-06T12:26:03.978Z,21.54
2019-03-06T12:28:31.569Z,21.35
2019-03-06T12:30:59.448Z,20.76
2019-03-06T12:33:27.444Z,20.76
2019-03-06T12:35:55.000Z,20.23
2019-03-06T12:38:22.710Z,19.12
2019-03-06T12:40:50.532Z,19.12
2019-03-06T12:43:18.204Z,18.52
2019-03-06T12:45:46.069Z,17.92
2019-03-06T12:48:15.267Z,17.55
2019-03-06T12:50:42.796Z,17.32
2019-03-06T12:53:10.371Z,17.13
2019-03-06T12:55:38.213Z,16.85
2019-03-06T12:58:05.787Z,16.85
2019-03-06T13:00:33.342Z,16.84
2019-03-06T13:03:01.188Z,16.60
2019-03-06T13:05:28.797Z,16.60
2019-03-06T13:07:57.596Z,16.31
2019-03-06T13:10:25.499Z,16.31
2019-03-06T13:12:53.044Z,16.20
2019-03-06T13:15:20.671Z,16.14
2019-03-06T13:17:48.616Z,16.07
2019-03-06T13:20:16.191Z,15.99
2019-03-06T13:22:43.797Z,15.91
2019-03-06T13:25:11.787Z,15.85
2019-03-06T13:27:39.426Z,15.85
2019-03-06T13:30:10.069Z,15.78
2019-03-06T13:32:56.552Z,15.65
2019-03-06T13:35:36.894Z,15.54
2019-03-06T13:38:06.458Z,15.54
2019-03-06T13:40:37.043Z,15.47
2019-03-06T13:43:09.231Z,15.39
2019-03-06T13:45:34.601Z,15.31
2019-03-06T13:48:02.215Z,15.12
2019-03-06T13:50:34.962Z,15.12
2019-03-06T13:53:02.921Z,15.05
2019-03-06T13:55:30.501Z,15.00
2019-03-06T13:57:58.610Z,14.92
2019-03-06T14:00:29.129Z,14.92
2019-03-06T14:02:56.679Z,14.91
2019-03-06T14:05:24.457Z,14.93
2019-03-06T14:08:00.656Z,14.93
2019-03-06T14:10:31.289Z,14.93
2019-03-06T14:12:58.898Z,14.93
2019-03-06T14:15:26.760Z,14.95
2019-03-06T14:17:55.532Z,14.94
2019-03-06T14:20:25.164Z,14.88
2019-03-06T14:22:56.101Z,14.88
2019-03-06T14:25:23.954Z,14.76
2019-03-06T14:27:53.211Z,14.70
2019-03-06T14:30:39.917Z,14.67
2019-03-06T14:33:07.433Z,14.67
2019-03-06T14:35:37.068Z,14.62
2019-03-06T14:38:14.265Z,14.58
2019-03-06T14:40:42.133Z,14.41
2019-03-06T14:43:09.755Z,14.30
2019-03-06T14:45:39.146Z,14.21
2019-03-06T14:48:07.002Z,14.14
2019-03-06T14:50:34.615Z,14.07
2019-03-06T14:53:02.426Z,14.07
2019-03-06T14:55:31.960Z,13.98
2019-03-06T14:58:06.618Z,13.89
2019-03-06T15:00:35.295Z,13.59
2019-03-06T15:03:04.484Z,13.59
2019-03-06T15:05:32.016Z,13.36
2019-03-06T15:07:59.909Z,13.36
2019-03-06T15:10:27.483Z,13.30
2019-03-06T15:12:58.148Z,13.27
2019-03-06T15:15:26.031Z,13.24
2019-03-06T15:17:53.644Z,13.24
2019-03-06T15:20:21.213Z,13.24
2019-03-06T15:22:50.280Z,13.23
2019-03-06T15:25:17.819Z,13.23
2019-03-06T15:27:45.401Z,13.20
2019-03-06T15:30:13.444Z,13.19
2019-03-06T15:32:43.811Z,13.21
2019-03-06T15:35:11.345Z,13.24
2019-03-06T15:37:39.451Z,13.24
2019-03-06T15:40:08.050Z,13.29
2019-03-06T15:42:35.675Z,13.29
2019-03-06T15:45:05.580Z,13.28
2019-03-06T15:47:33.886Z,13.28
2019-03-06T15:50:02.827Z,13.26
2019-03-06T15:52:42.065Z,13.25
2019-03-06T15:55:09.684Z,13.24
2019-03-06T15:57:40.563Z,13.25
2019-03-06T16:00:08.672Z,13.26
2019-03-06T16:02:38.617Z,13.26
2019-03-06T16:05:08.426Z,13.27
2019-03-06T16:07:36.014Z,13.26
2019-03-06T16:10:03.861Z,13.24
2019-03-06T16:12:31.705Z,13.21
2019-03-06T16:14:59.290Z,13.16
2019-03-06T16:17:33.747Z,13.16
2019-03-06T16:20:01.572Z,13.12
2019-03-06T16:22:29.177Z,13.08
2019-03-06T16:24:56.760Z,13.03
2019-03-06T16:27:25.034Z,13.01
2019-03-06T16:29:52.581Z,13.01
2019-03-06T16:32:20.189Z,13.00
2019-03-06T16:34:47.935Z,12.93
2019-03-06T16:37:17.843Z,12.93
2019-03-06T16:39:45.657Z,12.90
2019-03-06T16:42:16.131Z,12.87
2019-03-06T16:44:49.284Z,12.82
2019-03-06T16:47:17.026Z,12.76
2019-03-06T16:49:44.633Z,12.72
2019-03-06T16:52:12.179Z,12.72
2019-03-06T16:54:40.210Z,12.69
2019-03-06T16:57:07.793Z,12.64
2019-03-06T16:59:35.395Z,12.54
2019-03-06T17:02:03.418Z,12.26
2019-03-06T17:04:31.178Z,12.13
2019-03-06T17:06:58.742Z,12.13
2019-03-06T17:09:35.458Z,11.92
2019-03-06T17:12:05.832Z,11.92
2019-03-06T17:14:33.632Z,11.68
2019-03-06T17:17:05.298Z,11.68
2019-03-06T17:19:32.113Z,11.56
2019-03-06T17:22:00.107Z,11.44
2019-03-06T17:24:27.702Z,11.27
2019-03-06T17:26:55.293Z,11.18
2019-03-06T17:29:23.224Z,11.18
2019-03-06T17:31:54.312Z,11.11
2019-03-06T17:34:22.016Z,11.05
2019-03-06T17:36:50.688Z,10.98
2019-03-06T17:39:18.197Z,10.98
2019-03-06T17:41:45.754Z,10.96
2019-03-06T17:44:15.808Z,10.96
2019-03-06T17:46:50.961Z,10.94
2019-03-06T17:49:18.522Z,10.93
2019-03-06T17:51:49.177Z,10.98
2019-03-06T17:54:16.722Z,10.98
2019-03-06T17:56:44.246Z,11.01
2019-03-06T17:59:13.909Z,11.01
2019-03-06T18:01:41.911Z,11.03
2019-03-06T18:04:15.704Z,11.03
2019-03-06T18:06:43.564Z,11.02
2019-03-06T18:09:11.239Z,10.99
2019-03-06T18:11:47.940Z,10.99
2019-03-06T18:14:20.182Z,10.98
2019-03-06T18:16:47.788Z,10.95
2019-03-06T18:19:16.577Z,10.92
2019-03-06T18:21:44.526Z,10.89
2019-03-06T18:24:15.780Z,10.89
2019-03-06T18:26:45.258Z,10.89
2019-03-06T18:29:13.152Z,10.93
2019-03-06T18:31:40.742Z,10.97
2019-03-06T18:34:12.820Z,11.04
2019-03-06T18:36:40.803Z,11.12
2019-03-06T18:39:17.843Z,11.15
2019-03-06T18:41:46.529Z,11.15
2019-03-06T18:44:14.510Z,11.15
2019-03-06T18:46:42.054Z,11.09
2019-03-06T18:49:09.664Z,11.02
2019-03-06T18:51:37.544Z,10.95
2019-03-06T18:54:05.095Z,10.95
2019-03-06T18:56:35.777Z,10.75
2019-03-06T18:59:03.947Z,10.69
2019-03-06T19:01:32.373Z,10.63
2019-03-06T19:04:05.206Z,10.63
2019-03-06T19:06:35.119Z,10.54
2019-03-06T19:09:04.526Z,10.50
2019-03-06T19:11:32.571Z,10.46
2019-03-06T19:14:00.320Z,10.46
2019-03-06T19:16:27.906Z,10.41
2019-03-06T19:19:00.014Z,10.36
2019-03-06T19:21:27.538Z,10.36
2019-03-06T19:23:55.162Z,10.35
2019-03-06T19:26:28.760Z,10.34
2019-03-06T19:28:59.511Z,10.32
2019-03-06T19:31:27.035Z,10.32
2019-03-06T19:33:55.743Z,10.31
2019-03-06T19:36:25.511Z,10.30
2019-03-06T19:38:58.388Z,10.29
2019-03-06T19:41:26.402Z,10.30
2019-03-06T19:43:54.070Z,10.33
2019-03-06T19:46:23.361Z,10.33
2019-03-06T19:48:59.544Z,10.36
2019-03-06T19:51:39.294Z,10.36
2019-03-06T19:54:08.820Z,10.37
2019-03-06T19:56:36.403Z,10.40
2019-03-06T19:59:04.267Z,10.40
2019-03-06T20:01:33.798Z,10.44
2019-03-06T20:04:01.409Z,10.45
2019-03-06T20:06:31.694Z,10.47
2019-03-06T20:08:59.490Z,10.53
2019-03-06T20:11:27.244Z,10.53
2019-03-06T20:13:54.840Z,10.56
2019-03-06T20:16:23.615Z,10.56
2019-03-06T20:18:51.533Z,10.59
2019-03-06T20:21:21.915Z,10.66
2019-03-06T20:23:49.702Z,10.66
2019-03-06T20:26:17.295Z,10.66
2019-03-06T20:28:49.957Z,10.66
2019-03-06T20:31:18.660Z,10.66
2019-03-06T20:33:47.378Z,10.66
2019-03-06T20:36:20.546Z,10.66
2019-03-06T20:38:52.461Z,10.66
2019-03-06T20:41:27.346Z,10.68
2019-03-06T20:43:57.830Z,10.69
2019-03-06T20:46:25.499Z,10.66
2019-03-06T20:48:54.948Z,10.63
2019-03-06T20:51:29.177Z,10.61
2019-03-06T20:53:56.757Z,10.53
2019-03-06T20:56:24.443Z,10.53
2019-03-06T20:59:00.438Z,10.51
2019-03-06T21:01:28.133Z,10.51
2019-03-06T21:03:55.733Z,10.49
2019-03-06T21:06:23.344Z,10.49
2019-03-06T21:08:52.540Z,10.47
2019-03-06T21:11:33.625Z,10.47
2019-03-06T21:14:03.372Z,10.45
2019-03-06T21:16:32.068Z,10.43
2019-03-06T21:19:03.356Z,10.43
2019-03-06T21:21:31.225Z,10.44
2019-03-06T21:24:00.776Z,10.42
2019-03-06T21:26:28.655Z,10.44
2019-03-06T21:28:56.380Z,10.42
2019-03-06T21:31:25.214Z,10.42
2019-03-06T21:33:55.994Z,10.42
2019-03-06T21:36:23.537Z,10.41
2019-03-06T21:38:51.144Z,10.41
2019-03-06T21:41:31.020Z,10.43
2019-03-06T21:43:58.738Z,10.42
2019-03-06T21:46:26.524Z,10.44
2019-03-06T21:48:54.135Z,10.43
2019-03-06T21:51:24.474Z,10.42
2019-03-06T21:53:52.302Z,10.42
2019-03-06T21:56:21.953Z,10.42
2019-03-06T21:58:53.500Z,10.43
2019-03-06T22:01:25.724Z,10.42
2019-03-06T22:03:53.339Z,10.44
2019-03-06T22:06:20.880Z,10.46
2019-03-06T22:08:48.735Z,10.50
2019-03-06T22:11:17.908Z,10.50
2019-03-06T22:13:45.497Z,10.51
2019-03-06T22:16:15.259Z,10.55
2019-03-06T22:18:45.100Z,10.61
2019-03-06T22:21:12.702Z,10.64
2019-03-06T22:23:40.484Z,10.64
2019-03-06T22:26:08.081Z,10.64
2019-03-06T22:28:35.675Z,10.64
2019-03-06T22:31:03.568Z,10.62
2019-03-06T22:33:35.949Z,10.61
2019-03-06T22:36:03.465Z,10.59
2019-03-06T22:38:35.752Z,10.59
2019-03-06T22:41:03.285Z,10.56
2019-03-06T22:43:32.866Z,10.56
2019-03-06T22:46:06.390Z,10.54
2019-03-06T22:48:34.013Z,10.56
2019-03-06T22:51:18.803Z,10.57
2019-03-06T22:53:46.705Z,10.57
2019-03-06T22:56:14.490Z,10.60
2019-03-06T22:58:42.088Z,10.60
2019-03-06T23:01:13.072Z,10.60
2019-03-06T23:03:40.677Z,10.64
2019-03-06T23:06:08.232Z,10.67
2019-03-06T23:08:35.750Z,10.73
2019-03-06T23:11:05.856Z,10.74
2019-03-06T23:13:35.969Z,10.74
2019-03-06T23:16:03.499Z,10.73
2019-03-06T23:18:31.100Z,10.74
2019-03-06T23:20:59.077Z,10.75
2019-03-06T23:23:26.679Z,10.76
2019-03-06T23:25:56.881Z,10.76
2019-03-06T23:28:26.105Z,10.74
2019-03-06T23:30:58.053Z,10.74
2019-03-06T23:33:25.914Z,10.73
2019-03-06T23:35:53.525Z,10.77
2019-03-06T23:38:22.937Z,10.80
2019-03-06T23:40:51.434Z,10.81
2019-03-06T23:43:19.589Z,10.81
2019-03-06T23:45:47.185Z,10.83
2019-03-06T23:51:10.883Z,10.86
2019-03-06T23:53:57.134Z,10.86
2019-03-06T23:56:25.032Z,10.86
2019-03-06T23:58:54.690Z,10.93
